CheckWX is a tool to help pilots better visualize weather data.  It is not intended as a substitute for an official pre-flight weather briefing.

14:27:42 UTC

KBVI TAF
Beaver County Airport
Beaver Falls, Pennsylvania, USA
KBVI 291132Z 2912/3012 34005KT P6SM OVC025 TEMPO 2912/2915 OVC035 FM291500 36003KT P6SM BKN035 FM300000 02003KT P6SM BKN250

Jan-29@
12:00 UTC

Jan-29 @ 12:00 UTC

Jan-29@
15:00 UTC

Jan-29 @ 15:00 UTC

KBVI 291132Z 2912/3012 34005KT P6SM OVC025
Wind
  • 340° at 5 KTS
Cloud Levels
  • Overcast at 2,500' AGL

Jan-29@
12:00 UTC

Jan-29 @ 12:00 UTC

Jan-29@
15:00 UTC

Jan-29 @ 15:00 UTC

TEMPO 2912/2915 OVC035

Temporary

Temporary Changes expected for less than half the time period

Cloud Levels
  • Overcast at 3,500' AGL

Jan-29@
15:00 UTC

Jan-29 @ 15:00 UTC

Jan-30@
00:00 UTC

Jan-30 @ 00:00 UTC

FM291500 36003KT P6SM BKN035

From

From Standard forecast or significant change

Wind
  • 360° at 3 KTS
Cloud Levels
  • Broken at 3,500' AGL

Jan-30@
00:00 UTC

Jan-30 @ 00:00 UTC

Jan-30@
12:00 UTC

Jan-30 @ 12:00 UTC

FM300000 02003KT P6SM BKN250

From

From Standard forecast or significant change

Wind
  • 020° at 3 KTS
Cloud Levels
  • Broken at 25,000' AGL